Time;durP1;ratioP1;P1;durP2;ratioP2;P2;SDS_P1;SDS_P2;PMS_P1;PMS_P2;Temp;Humidity;BMP_temperature;BMP_pressure;BME280_temperature;BME280_humidity;BME280_pressure;Samples;Min_cycle;Max_cycle;Signal;HPM_P1;HPM_P2
2023/03/24 00:01:24;;;;;;;6.03;5.43;;;10.50;99.90;;;;;;5065435;28;20199;-50
2023/03/24 00:03:51;;;;;;;6.60;5.87;;;10.40;99.90;;;;;;5062585;28;20218;-56
2023/03/24 00:06:21;;;;;;;9.60;5.50;;;10.50;99.90;;;;;;5060228;28;20195;-47
2023/03/24 00:08:48;;;;;;;11.60;5.40;;;10.50;99.90;;;;;;5057115;28;20203;-57
2023/03/24 00:11:17;;;;;;;7.57;5.00;;;10.50;99.90;;;;;;5048900;28;20939;-51
2023/03/24 00:13:46;;;;;;;6.80;5.50;;;10.50;99.90;;;;;;5065476;28;20207;-55
2023/03/24 00:16:15;;;;;;;10.00;4.97;;;10.50;99.90;;;;;;5062893;28;20202;-47
2023/03/24 00:18:42;;;;;;;7.37;5.50;;;10.50;99.90;;;;;;5066002;28;20226;-47
2023/03/24 00:21:12;;;;;;;5.80;5.00;;;10.50;99.90;;;;;;5055853;28;20276;-51
2023/03/24 00:23:42;;;;;;;7.60;4.53;;;10.50;99.90;;;;;;5057623;28;20222;-52
2023/03/24 00:26:14;;;;;;;7.50;4.40;;;10.50;99.90;;;;;;5061683;28;20198;-51
2023/03/24 00:28:44;;;;;;;6.17;3.80;;;10.50;99.90;;;;;;5050891;28;20278;-48
2023/03/24 00:31:13;;;;;;;5.47;4.10;;;10.50;99.90;;;;;;5062023;28;20275;-49
2023/03/24 00:33:41;;;;;;;9.50;4.10;;;10.50;99.90;;;;;;5064408;28;20726;-52
2023/03/24 00:36:11;;;;;;;5.93;4.23;;;10.50;99.90;;;;;;5054924;28;20203;-52
2023/03/24 00:38:40;;;;;;;7.50;3.93;;;10.50;99.90;;;;;;5065805;28;20293;-50
2023/03/24 00:41:09;;;;;;;5.27;3.93;;;10.50;99.90;;;;;;5052946;28;20199;-50
2023/03/24 00:43:36;;;;;;;6.40;3.73;;;10.50;99.90;;;;;;5049137;28;20222;-49
2023/03/24 00:46:05;;;;;;;8.00;4.00;;;10.50;99.90;;;;;;5059747;28;20194;-51
2023/03/24 00:48:37;;;;;;;4.37;3.67;;;10.50;99.90;;;;;;5063554;28;20241;-49
2023/03/24 00:51:25;;;;;;;4.23;3.80;;;10.50;99.90;;;;;;5058898;28;20221;-48
2023/03/24 00:53:56;;;;;;;7.20;3.13;;;10.50;99.90;;;;;;5057150;28;20195;-56
2023/03/24 00:56:31;;;;;;;7.20;3.57;;;10.50;99.90;;;;;;5051232;28;20585;-49
2023/03/24 00:59:01;;;;;;;4.63;3.53;;;10.50;99.90;;;;;;5047311;28;20289;-56
2023/03/24 01:01:29;;;;;;;5.87;3.30;;;10.50;99.90;;;;;;5063348;28;20199;-49
2023/03/24 01:03:56;;;;;;;10.47;3.50;;;10.50;99.90;;;;;;5061203;28;20225;-57
2023/03/24 01:06:24;;;;;;;4.80;3.90;;;10.50;99.90;;;;;;5096186;28;20240;-50
2023/03/24 01:08:53;;;;;;;5.97;3.50;;;10.50;99.90;;;;;;5057251;28;20222;-57
2023/03/24 01:11:23;;;;;;;4.80;2.77;;;10.50;99.90;;;;;;5053290;28;20892;-51
2023/03/24 01:13:54;;;;;;;8.50;3.30;;;10.50;99.90;;;;;;5055786;28;20753;-55
2023/03/24 01:16:24;;;;;;;8.93;3.07;;;10.50;99.90;;;;;;5059072;28;20898;-52
2023/03/24 01:18:51;;;;;;;4.87;3.03;;;10.50;99.90;;;;;;5054048;28;20226;-52
2023/03/24 01:21:18;;;;;;;4.20;2.53;;;10.50;99.90;;;;;;5094240;28;20242;-56
2023/03/24 01:23:45;;;;;;;7.10;3.10;;;10.50;99.90;;;;;;5055187;28;20219;-49
2023/03/24 01:26:12;;;;;;;4.63;3.00;;;10.50;99.90;;;;;;5054463;28;20638;-56
2023/03/24 01:28:42;;;;;;;4.57;2.73;;;10.50;99.90;;;;;;5061526;28;20194;-50
2023/03/24 01:31:13;;;;;;;5.03;2.70;;;10.40;99.90;;;;;;5049175;28;20543;-56
2023/03/24 01:33:40;;;;;;;7.47;2.83;;;10.40;99.90;;;;;;5061687;28;20214;-51
2023/03/24 01:36:08;;;;;;;5.10;2.80;;;10.40;99.90;;;;;;5062467;28;20579;-49
2023/03/24 01:38:35;;;;;;;3.80;2.37;;;10.40;99.90;;;;;;5054261;28;20205;-49
2023/03/24 01:41:02;;;;;;;3.87;2.57;;;10.40;99.90;;;;;;5063734;28;20269;-51
2023/03/24 01:43:32;;;;;;;4.03;2.83;;;10.40;99.90;;;;;;5051328;28;20199;-53
2023/03/24 01:46:06;;;;;;;5.43;3.10;;;10.40;99.90;;;;;;5049874;28;20265;-49
2023/03/24 01:48:57;;;;;;;5.00;2.60;;;10.40;99.90;;;;;;5060341;28;20300;-50
2023/03/24 01:51:29;;;;;;;6.90;3.07;;;10.40;99.90;;;;;;5059900;28;20206;-55
2023/03/24 01:54:00;;;;;;;6.57;2.70;;;10.40;99.90;;;;;;5096425;28;20866;-50
2023/03/24 01:56:30;;;;;;;6.17;2.83;;;10.40;99.90;;;;;;5046968;28;20515;-56
2023/03/24 01:59:00;;;;;;;6.13;3.17;;;10.40;99.90;;;;;;5048269;28;20366;-48
2023/03/24 02:01:36;;;;;;;6.87;2.67;;;10.40;99.90;;;;;;5054564;28;20202;-49
2023/03/24 02:04:17;;;;;;;5.03;2.83;;;10.30;99.90;;;;;;5045745;28;20751;-55
2023/03/24 02:06:45;;;;;;;3.93;3.03;;;10.40;99.90;;;;;;5059960;28;20237;-49
2023/03/24 02:09:14;;;;;;;3.17;2.57;;;10.30;99.90;;;;;;5061677;28;20202;-54
2023/03/24 02:12:03;;;;;;;6.03;2.90;;;10.30;99.90;;;;;;5048696;28;20288;-50
2023/03/24 02:14:31;;;;;;;4.80;3.03;;;10.30;99.90;;;;;;5058006;28;20924;-51
2023/03/24 02:17:20;;;;;;;6.30;2.97;;;10.30;99.90;;;;;;5081491;28;20309;-49
2023/03/24 02:20:26;;;;;;;6.40;3.40;;;10.30;99.90;;;;;;5094682;28;20927;-50
2023/03/24 02:23:13;;;;;;;5.83;2.57;;;10.30;99.90;;;;;;5012133;28;20210;-49
2023/03/24 02:26:06;;;;;;;6.73;3.07;;;10.30;99.90;;;;;;5072641;28;20280;-51
2023/03/24 02:28:42;;;;;;;5.20;3.13;;;10.30;99.90;;;;;;5065976;28;20195;-51
2023/03/24 02:31:24;;;;;;;4.07;3.00;;;10.30;99.90;;;;;;5055497;28;20301;-56
2023/03/24 02:34:23;;;;;;;3.70;2.80;;;10.30;99.90;;;;;;5059622;28;20202;-48
2023/03/24 02:37:26;;;;;;;4.00;3.13;;;10.30;99.90;;;;;;5041038;28;20220;-49
2023/03/24 02:40:09;;;;;;;6.27;2.70;;;10.30;99.90;;;;;;5042530;28;20203;-48
2023/03/24 02:42:47;;;;;;;7.70;3.43;;;10.30;99.90;;;;;;5044382;28;20275;-50
2023/03/24 02:45:25;;;;;;;6.47;3.03;;;10.30;99.90;;;;;;5060691;28;20268;-53
2023/03/24 02:48:04;;;;;;;2.97;2.70;;;10.30;99.90;;;;;;5048245;28;20241;-52
2023/03/24 02:50:39;;;;;;;6.20;3.30;;;10.30;99.90;;;;;;5057548;28;20198;-48
2023/03/24 02:53:11;;;;;;;7.77;3.37;;;10.30;99.90;;;;;;5061907;28;20211;-51
2023/03/24 02:55:56;;;;;;;4.87;3.00;;;10.30;99.90;;;;;;5095153;28;20221;-53
2023/03/24 02:58:30;;;;;;;4.63;2.77;;;10.30;99.90;;;;;;5052526;28;20241;-53
2023/03/24 03:01:05;;;;;;;4.57;2.73;;;10.30;99.90;;;;;;5078747;28;20205;-48
2023/03/24 03:04:05;;;;;;;6.37;3.20;;;10.30;99.90;;;;;;5080065;28;20245;-50
2023/03/24 03:06:35;;;;;;;5.73;2.93;;;10.30;99.90;;;;;;5091000;28;20306;-50
2023/03/24 03:09:08;;;;;;;5.10;2.87;;;10.30;99.90;;;;;;5061796;28;20596;-48
2023/03/24 03:11:38;;;;;;;4.23;2.83;;;10.30;99.90;;;;;;5058640;28;20182;-51
2023/03/24 03:14:09;;;;;;;5.97;2.93;;;10.30;99.90;;;;;;5086552;28;20781;-52
2023/03/24 03:16:42;;;;;;;4.17;3.00;;;10.30;99.90;;;;;;5091823;28;20309;-50
2023/03/24 03:19:16;;;;;;;6.60;3.57;;;10.30;99.90;;;;;;5048434;28;20286;-51
2023/03/24 03:21:47;;;;;;;7.00;3.93;;;10.30;99.90;;;;;;5046666;28;20202;-50
2023/03/24 03:24:25;;;;;;;3.67;3.00;;;10.30;99.90;;;;;;5059683;28;20700;-55
2023/03/24 03:26:56;;;;;;;6.37;3.13;;;10.20;99.90;;;;;;5056148;28;20708;-49
2023/03/24 03:29:28;;;;;;;5.60;3.70;;;10.30;99.90;;;;;;5051342;28;20278;-54
2023/03/24 03:32:06;;;;;;;3.17;2.97;;;10.30;99.90;;;;;;5062954;28;20206;-49
2023/03/24 03:34:40;;;;;;;7.27;3.63;;;10.30;99.90;;;;;;5076686;28;20203;-52
2023/03/24 03:37:12;;;;;;;5.20;3.60;;;10.30;99.90;;;;;;5060611;28;20226;-52
2023/03/24 03:39:47;;;;;;;4.97;3.20;;;10.30;99.90;;;;;;5058007;28;20195;-48
2023/03/24 03:42:16;;;;;;;3.60;3.20;;;10.30;99.90;;;;;;5088725;28;20560;-56
2023/03/24 03:44:43;;;;;;;6.90;3.17;;;10.30;99.90;;;;;;5051719;28;20446;-51
2023/03/24 03:47:10;;;;;;;4.63;3.20;;;10.30;99.90;;;;;;5062546;28;20238;-53
2023/03/24 03:49:43;;;;;;;4.67;3.57;;;10.30;99.90;;;;;;5078512;28;20207;-53
2023/03/24 03:52:29;;;;;;;3.83;3.37;;;10.30;99.90;;;;;;5056936;28;20233;-52
2023/03/24 03:54:57;;;;;;;3.10;2.87;;;10.30;99.90;;;;;;5051224;28;20806;-49
2023/03/24 03:57:27;;;;;;;4.53;3.43;;;10.30;99.90;;;;;;5055440;28;20238;-50
2023/03/24 04:00:15;;;;;;;5.07;2.63;;;10.30;99.90;;;;;;5048851;28;20298;-50
2023/03/24 04:03:09;;;;;;;3.73;2.90;;;10.30;99.90;;;;;;5051087;28;20256;-54
2023/03/24 04:05:38;;;;;;;5.90;3.20;;;10.40;99.90;;;;;;5046683;28;20744;-53
2023/03/24 04:08:25;;;;;;;4.73;3.13;;;10.40;99.90;;;;;;5060016;28;20285;-51
2023/03/24 04:11:32;;;;;;;5.40;3.33;;;10.40;99.90;;;;;;5060206;28;20825;-48
2023/03/24 04:14:21;;;;;;;5.23;3.37;;;10.40;99.90;;;;;;5047657;28;20615;-53
2023/03/24 04:17:17;;;;;;;4.63;3.47;;;10.50;99.90;;;;;;5049864;28;20269;-52
2023/03/24 04:20:01;;;;;;;4.43;3.87;;;10.50;99.90;;;;;;5058123;28;20236;-51
2023/03/24 04:23:02;;;;;;;5.80;3.63;;;10.60;99.90;;;;;;5053786;28;20974;-47
2023/03/24 04:25:39;;;;;;;4.10;3.70;;;10.70;99.90;;;;;;5061553;28;20222;-55
2023/03/24 04:28:20;;;;;;;7.67;4.87;;;10.70;99.90;;;;;;5092301;28;20222;-48
2023/03/24 04:31:16;;;;;;;4.77;3.60;;;10.70;99.90;;;;;;5063621;28;20675;-50
2023/03/24 04:33:50;;;;;;;4.03;3.70;;;10.80;99.90;;;;;;5083707;28;20236;-47
2023/03/24 04:36:26;;;;;;;5.70;3.30;;;10.90;99.90;;;;;;5050059;28;20199;-54
2023/03/24 04:39:13;;;;;;;4.30;3.60;;;10.90;99.90;;;;;;5061848;28;20217;-52
2023/03/24 04:41:47;;;;;;;3.83;3.43;;;11.00;99.90;;;;;;5060683;28;20202;-49
2023/03/24 04:44:23;;;;;;;3.47;3.17;;;11.00;99.90;;;;;;5090919;28;20280;-53
2023/03/24 04:47:12;;;;;;;3.97;3.07;;;11.00;99.90;;;;;;5065264;28;20328;-53
2023/03/24 04:49:46;;;;;;;3.80;3.37;;;11.10;99.90;;;;;;5054986;28;20306;-51
2023/03/24 04:52:13;;;;;;;5.60;3.43;;;11.10;99.90;;;;;;5049718;28;20207;-51
2023/03/24 04:54:40;;;;;;;4.70;3.47;;;11.10;99.90;;;;;;5060972;28;20265;-52
2023/03/24 04:57:07;;;;;;;4.30;3.30;;;11.10;99.90;;;;;;5063637;28;20609;-52
2023/03/24 04:59:43;;;;;;;3.77;3.30;;;11.10;99.90;;;;;;5055713;28;20909;-49
2023/03/24 05:02:11;;;;;;;4.13;3.30;;;11.10;99.90;;;;;;5064055;28;20202;-52
2023/03/24 05:04:47;;;;;;;3.87;3.40;;;11.10;99.90;;;;;;5053933;28;20958;-53
2023/03/24 05:07:18;;;;;;;6.83;3.77;;;11.10;99.90;;;;;;5048613;28;20218;-55
2023/03/24 05:09:47;;;;;;;3.73;3.30;;;11.20;99.90;;;;;;5061157;28;20284;-53
2023/03/24 05:12:14;;;;;;;4.23;3.00;;;11.20;99.90;;;;;;5062907;28;20203;-52
2023/03/24 05:15:12;;;;;;;4.17;3.40;;;11.20;99.90;;;;;;4979611;28;20267;-48
2023/03/24 05:17:40;;;;;;;5.53;3.60;;;11.20;99.90;;;;;;5076110;28;20226;-52
2023/03/24 05:20:09;;;;;;;4.17;3.73;;;11.20;99.90;;;;;;5077785;28;20277;-51
2023/03/24 05:22:38;;;;;;;5.40;4.00;;;11.20;99.90;;;;;;5047573;28;20241;-52
2023/03/24 05:25:05;;;;;;;7.23;5.07;;;11.20;99.90;;;;;;5059146;28;20245;-54
2023/03/24 05:27:35;;;;;;;3.93;3.57;;;11.30;99.90;;;;;;5061611;28;20214;-50
2023/03/24 05:30:15;;;;;;;4.33;3.77;;;11.30;99.90;;;;;;5053493;28;20201;-53
2023/03/24 05:32:44;;;;;;;3.83;3.43;;;11.30;99.90;;;;;;5062103;28;20233;-52
2023/03/24 05:35:11;;;;;;;4.90;4.30;;;11.30;99.90;;;;;;5045166;28;20404;-52
2023/03/24 05:37:38;;;;;;;3.53;3.20;;;11.30;99.90;;;;;;5063044;28;20210;-50
2023/03/24 05:40:05;;;;;;;2.93;2.73;;;11.30;99.90;;;;;;5044774;28;20203;-53
2023/03/24 05:42:50;;;;;;;3.57;3.27;;;11.40;99.90;;;;;;5061624;28;20205;-55
2023/03/24 05:45:18;;;;;;;3.53;3.23;;;11.40;99.90;;;;;;5054001;28;20226;-49
2023/03/24 05:47:48;;;;;;;4.60;3.90;;;11.40;99.90;;;;;;5062704;28;20250;-49
2023/03/24 05:50:17;;;;;;;6.87;4.23;;;11.40;99.90;;;;;;5045489;28;20747;-52
2023/03/24 05:52:45;;;;;;;3.73;3.43;;;11.50;99.90;;;;;;5061494;28;20199;-50
2023/03/24 05:55:31;;;;;;;3.50;3.20;;;11.50;99.90;;;;;;5061822;28;20210;-49
2023/03/24 05:58:07;;;;;;;4.20;3.80;;;11.50;99.90;;;;;;5057100;28;20305;-54
2023/03/24 06:00:40;;;;;;;3.83;2.97;;;11.40;99.90;;;;;;5086616;28;20394;-50
2023/03/24 06:03:15;;;;;;;3.40;3.10;;;11.50;99.90;;;;;;5051972;28;20191;-52
2023/03/24 06:05:48;;;;;;;5.03;3.73;;;11.50;99.90;;;;;;5069778;28;20221;-51
2023/03/24 06:08:37;;;;;;;4.20;3.80;;;11.50;99.90;;;;;;5063658;28;20300;-52
2023/03/24 06:11:05;;;;;;;4.73;3.57;;;11.50;99.90;;;;;;5043089;28;20210;-55
2023/03/24 06:13:39;;;;;;;12.80;6.13;;;11.50;99.90;;;;;;5058638;28;20202;-50
2023/03/24 06:16:08;;;;;;;5.13;4.40;;;11.50;99.90;;;;;;5053197;28;20561;-51
2023/03/24 06:18:41;;;;;;;5.23;3.57;;;11.60;99.90;;;;;;5047288;28;20293;-49
2023/03/24 06:21:18;;;;;;;4.20;3.50;;;11.60;99.90;;;;;;5043417;28;20203;-53
2023/03/24 06:23:46;;;;;;;3.83;2.90;;;11.60;99.90;;;;;;5087160;28;20207;-49
2023/03/24 06:26:18;;;;;;;3.23;2.77;;;11.60;99.90;;;;;;5033557;28;20257;-55
2023/03/24 06:28:51;;;;;;;4.57;2.73;;;11.60;99.90;;;;;;5059273;28;20209;-53
2023/03/24 06:31:20;;;;;;;4.53;3.87;;;11.60;99.90;;;;;;5084674;28;20191;-54
2023/03/24 06:33:51;;;;;;;4.13;3.17;;;11.60;99.90;;;;;;5057947;28;20303;-51
2023/03/24 06:36:19;;;;;;;4.67;3.57;;;11.60;99.90;;;;;;5041065;28;20195;-54
2023/03/24 06:38:46;;;;;;;6.73;3.23;;;11.70;99.90;;;;;;5059929;28;20301;-48
2023/03/24 06:41:17;;;;;;;3.20;2.30;;;11.70;99.90;;;;;;5036566;28;20471;-49
2023/03/24 06:43:47;;;;;;;4.67;2.37;;;11.70;99.90;;;;;;5059111;28;20203;-53
2023/03/24 06:46:14;;;;;;;4.87;3.50;;;11.70;99.90;;;;;;5054244;28;20238;-52
2023/03/24 06:48:45;;;;;;;4.70;3.30;;;11.70;99.90;;;;;;5055893;28;20307;-51
2023/03/24 06:51:13;;;;;;;2.90;2.40;;;11.70;99.90;;;;;;5080979;28;20592;-53
2023/03/24 06:53:42;;;;;;;2.60;2.40;;;11.70;99.90;;;;;;5060976;28;20187;-50
2023/03/24 06:56:15;;;;;;;2.90;2.60;;;11.80;99.90;;;;;;5041159;28;20237;-50
2023/03/24 06:58:44;;;;;;;2.67;2.47;;;11.80;99.90;;;;;;5053257;28;20301;-49
2023/03/24 07:01:33;;;;;;;3.77;2.80;;;11.70;99.90;;;;;;5057872;28;20226;-52
2023/03/24 07:04:05;;;;;;;3.07;2.87;;;11.80;99.90;;;;;;5052946;28;20210;-52
2023/03/24 07:06:55;;;;;;;4.07;3.00;;;11.80;99.90;;;;;;5084724;28;20218;-52
2023/03/24 07:09:23;;;;;;;2.40;2.20;;;11.90;99.90;;;;;;5053875;28;20202;-48
2023/03/24 07:11:50;;;;;;;2.43;2.27;;;11.90;99.90;;;;;;5086277;28;20297;-52
2023/03/24 07:14:17;;;;;;;2.33;1.90;;;11.80;99.90;;;;;;5045117;28;20202;-51
2023/03/24 07:16:45;;;;;;;1.40;1.30;;;11.80;99.90;;;;;;5057932;28;20293;-49
2023/03/24 07:19:34;;;;;;;1.20;1.10;;;11.80;99.90;;;;;;5050465;28;20202;-50
2023/03/24 07:22:35;;;;;;;2.40;1.17;;;11.80;99.90;;;;;;5048089;28;20203;-49
2023/03/24 07:25:21;;;;;;;1.40;1.30;;;11.80;99.90;;;;;;5048907;28;20296;-54
2023/03/24 07:27:56;;;;;;;3.63;1.93;;;11.80;99.90;;;;;;5045358;28;20233;-47
2023/03/24 07:30:23;;;;;;;1.90;1.00;;;11.80;99.90;;;;;;5057923;28;20264;-55
2023/03/24 07:32:53;;;;;;;1.93;1.33;;;11.80;99.90;;;;;;5060520;28;20210;-51
2023/03/24 07:35:20;;;;;;;1.60;1.00;;;11.80;99.90;;;;;;5054188;28;20301;-55
2023/03/24 07:37:49;;;;;;;1.47;0.83;;;11.80;99.90;;;;;;5059216;28;20532;-50
2023/03/24 07:40:16;;;;;;;3.57;1.10;;;11.80;99.90;;;;;;5048069;28;20194;-55
2023/03/24 07:42:44;;;;;;;3.10;1.20;;;11.80;99.90;;;;;;5064955;28;20213;-53
2023/03/24 07:45:31;;;;;;;4.67;1.50;;;11.80;99.90;;;;;;5044704;28;20999;-49
2023/03/24 07:48:01;;;;;;;1.73;1.50;;;11.80;99.90;;;;;;5059560;28;20225;-50
2023/03/24 07:50:31;;;;;;;2.07;1.00;;;11.80;99.90;;;;;;5045347;28;20191;-49
2023/03/24 07:53:00;;;;;;;1.47;0.87;;;11.80;99.90;;;;;;5075178;28;20652;-51
2023/03/24 07:55:27;;;;;;;1.30;1.00;;;11.70;99.90;;;;;;5049344;28;20199;-51
2023/03/24 07:57:58;;;;;;;3.87;1.20;;;11.70;99.90;;;;;;5051343;28;20230;-54
2023/03/24 08:00:28;;;;;;;2.00;0.73;;;11.70;99.90;;;;;;5052685;28;20225;-50
2023/03/24 08:03:14;;;;;;;3.10;1.00;;;11.70;99.90;;;;;;5048328;28;20260;-55
2023/03/24 08:06:20;;;;;;;4.83;0.83;;;11.70;99.90;;;;;;5054210;28;20214;-52
2023/03/24 08:08:52;;;;;;;6.20;1.40;;;11.80;99.90;;;;;;5064240;28;20526;-48
2023/03/24 08:11:19;;;;;;;4.60;1.57;;;11.90;99.90;;;;;;5053522;28;20195;-47
2023/03/24 08:13:45;;;;;;;5.37;1.33;;;11.80;99.90;;;;;;5044476;28;20306;-48
2023/03/24 08:16:12;;;;;;;4.47;0.90;;;11.90;99.90;;;;;;5061882;28;20222;-53
2023/03/24 08:18:39;;;;;;;3.87;1.20;;;11.90;99.90;;;;;;5065517;28;20198;-49
2023/03/24 08:21:06;;;;;;;7.47;1.70;;;11.90;99.90;;;;;;5057505;28;20664;-55
2023/03/24 08:23:35;;;;;;;3.40;1.27;;;12.00;99.90;;;;;;5063043;28;20178;-50
2023/03/24 08:26:03;;;;;;;6.10;1.33;;;12.00;99.90;;;;;;5054704;28;20853;-54
2023/03/24 08:28:30;;;;;;;3.23;1.07;;;12.00;99.90;;;;;;5057022;28;21370;-50
2023/03/24 08:30:57;;;;;;;5.70;1.70;;;12.00;99.90;;;;;;5049948;28;20210;-53
2023/03/24 08:33:24;;;;;;;6.23;1.20;;;12.00;99.90;;;;;;5052446;28;20318;-50
2023/03/24 08:35:56;;;;;;;3.33;1.03;;;12.00;99.90;;;;;;5053973;28;23218;-51
2023/03/24 08:38:29;;;;;;;6.67;1.90;;;12.10;99.90;;;;;;5064249;28;20272;-47
2023/03/24 08:41:00;;;;;;;6.17;1.00;;;12.20;99.90;;;;;;5053500;28;23343;-50
2023/03/24 08:43:30;;;;;;;5.30;1.40;;;12.30;99.90;;;;;;5062481;28;20228;-55
2023/03/24 08:45:56;;;;;;;4.53;1.07;;;12.50;99.90;;;;;;5034360;28;20202;-50
2023/03/24 08:48:24;;;;;;;4.80;1.40;;;12.40;99.90;;;;;;5062867;28;20740;-51
2023/03/24 08:50:51;;;;;;;5.07;0.93;;;12.30;99.90;;;;;;5055032;28;20202;-47
2023/03/24 08:53:17;;;;;;;5.83;1.50;;;12.20;99.90;;;;;;5060817;28;20198;-49
2023/03/24 08:55:44;;;;;;;6.73;1.30;;;12.10;99.90;;;;;;5053580;28;20201;-52
2023/03/24 08:58:14;;;;;;;4.27;1.43;;;12.00;99.90;;;;;;5055163;28;20276;-50
2023/03/24 09:00:43;;;;;;;6.97;1.67;;;12.00;99.90;;;;;;5045549;28;20572;-55
2023/03/24 09:03:16;;;;;;;7.00;1.40;;;12.00;99.90;;;;;;5062945;28;20202;-49
2023/03/24 09:05:45;;;;;;;4.83;1.40;;;12.00;99.90;;;;;;5059850;28;20644;-56
2023/03/24 09:08:12;;;;;;;3.80;1.13;;;12.00;99.90;;;;;;5058965;28;20226;-52
2023/03/24 09:10:39;;;;;;;6.27;1.47;;;12.10;99.90;;;;;;5055304;28;20213;-55
2023/03/24 09:13:07;;;;;;;5.70;1.00;;;12.10;99.90;;;;;;5054347;28;20213;-53
2023/03/24 09:15:34;;;;;;;3.67;1.53;;;12.20;99.90;;;;;;5054548;28;20190;-56
2023/03/24 09:18:02;;;;;;;3.77;1.20;;;12.30;99.90;;;;;;5053711;28;20220;-49
2023/03/24 09:20:29;;;;;;;3.60;1.33;;;12.20;99.90;;;;;;5062843;28;20274;-55
2023/03/24 09:22:56;;;;;;;6.30;1.50;;;12.30;99.90;;;;;;5055714;28;20207;-52
2023/03/24 09:25:24;;;;;;;4.27;1.23;;;12.30;99.90;;;;;;5050849;28;20212;-49
2023/03/24 09:27:51;;;;;;;8.33;1.30;;;12.30;99.90;;;;;;5044604;28;20261;-51
2023/03/24 09:30:18;;;;;;;6.57;1.40;;;12.20;99.90;;;;;;5057392;28;20201;-49
2023/03/24 09:32:46;;;;;;;5.47;1.40;;;12.10;99.90;;;;;;5043312;28;20213;-55
2023/03/24 09:35:14;;;;;;;7.50;1.53;;;12.00;99.90;;;;;;5060657;28;20282;-52
2023/03/24 09:37:42;;;;;;;5.20;1.40;;;12.00;99.90;;;;;;5056161;28;20661;-56
2023/03/24 09:40:17;;;;;;;5.20;1.73;;;12.00;99.90;;;;;;5061824;28;20195;-55
2023/03/24 09:42:44;;;;;;;3.33;1.10;;;12.00;99.90;;;;;;5052840;28;20205;-56
2023/03/24 09:45:15;;;;;;;9.10;1.60;;;12.00;99.90;;;;;;5045804;28;20685;-50
2023/03/24 09:47:46;;;;;;;7.67;1.23;;;12.00;99.90;;;;;;5039857;28;20225;-56
2023/03/24 09:50:22;;;;;;;4.93;1.20;;;12.00;99.90;;;;;;5059495;28;20206;-53
2023/03/24 09:52:52;;;;;;;3.23;1.40;;;12.00;99.90;;;;;;5057117;28;20194;-50
2023/03/24 09:55:23;;;;;;;3.87;1.20;;;12.10;99.90;;;;;;5057773;28;20241;-52
2023/03/24 09:57:52;;;;;;;4.33;1.30;;;12.20;99.90;;;;;;5052712;28;20300;-50
2023/03/24 10:00:22;;;;;;;4.73;1.40;;;12.10;99.90;;;;;;5061383;28;20203;-48
2023/03/24 10:02:49;;;;;;;4.43;1.67;;;12.20;99.90;;;;;;5043851;28;20278;-51
2023/03/24 10:05:22;;;;;;;5.43;1.57;;;12.20;99.90;;;;;;5062413;28;20195;-55
2023/03/24 10:07:55;;;;;;;9.07;1.97;;;12.20;99.90;;;;;;5058794;28;20219;-53
2023/03/24 10:10:32;;;;;;;6.13;1.37;;;12.20;99.90;;;;;;5057278;28;20211;-49
2023/03/24 10:13:06;;;;;;;3.70;1.57;;;12.20;99.90;;;;;;5054956;28;20203;-55
2023/03/24 10:15:40;;;;;;;5.97;1.43;;;12.20;99.90;;;;;;5054154;28;20190;-57
2023/03/24 10:18:30;;;;;;;2.37;0.70;;;12.20;99.90;;;;;;5045924;28;20214;-51
2023/03/24 10:21:02;;;;;;;6.70;1.40;;;12.20;99.90;;;;;;5058354;28;20276;-49
2023/03/24 10:23:36;;;;;;;5.37;1.23;;;12.30;99.90;;;;;;5060463;28;20579;-57
2023/03/24 10:26:09;;;;;;;5.40;1.20;;;12.30;99.90;;;;;;5056537;28;21972;-50
2023/03/24 10:28:43;;;;;;;4.00;1.13;;;12.40;99.90;;;;;;5051721;28;20194;-57
2023/03/24 10:31:14;;;;;;;5.43;1.80;;;12.40;99.90;;;;;;5062257;28;20293;-52
2023/03/24 10:33:43;;;;;;;3.30;1.13;;;12.40;99.90;;;;;;5042205;28;20226;-56
2023/03/24 10:36:14;;;;;;;4.00;1.13;;;12.50;99.90;;;;;;5055850;28;20205;-52
2023/03/24 10:38:41;;;;;;;6.63;1.47;;;12.60;99.90;;;;;;5057803;28;20198;-56
2023/03/24 10:41:15;;;;;;;4.57;1.40;;;12.60;99.90;;;;;;5058707;28;20206;-49
2023/03/24 10:43:42;;;;;;;3.33;1.30;;;12.70;99.90;;;;;;5047232;28;20228;-57
2023/03/24 10:46:12;;;;;;;5.03;1.10;;;12.80;99.90;;;;;;5060544;28;20215;-52
2023/03/24 10:48:44;;;;;;;3.10;1.20;;;12.90;99.90;;;;;;5043500;28;20233;-56
2023/03/24 10:51:18;;;;;;;8.03;2.07;;;12.90;99.90;;;;;;5060103;28;21896;-51
2023/03/24 10:53:47;;;;;;;3.27;1.30;;;12.90;99.90;;;;;;5045291;28;20199;-50
2023/03/24 10:56:18;;;;;;;6.03;1.40;;;12.90;99.90;;;;;;5057415;28;20213;-54
2023/03/24 10:58:48;;;;;;;4.00;1.97;;;12.90;99.90;;;;;;5057024;28;20576;-49
2023/03/24 11:01:24;;;;;;;6.23;1.23;;;12.80;99.90;;;;;;5052472;28;20872;-53
2023/03/24 11:03:59;;;;;;;5.30;1.33;;;12.80;99.90;;;;;;5040518;28;20208;-55
2023/03/24 11:06:28;;;;;;;5.10;1.33;;;12.80;99.90;;;;;;5058802;28;20278;-52
2023/03/24 11:09:11;;;;;;;7.70;1.20;;;12.80;99.90;;;;;;5060414;28;20229;-60
2023/03/24 11:11:39;;;;;;;5.03;1.43;;;12.90;99.90;;;;;;5061521;28;20209;-53
2023/03/24 11:14:21;;;;;;;6.73;1.47;;;12.90;99.90;;;;;;5051422;28;20233;-56
2023/03/24 11:16:48;;;;;;;5.97;1.33;;;13.10;99.90;;;;;;5048920;28;20246;-54
2023/03/24 11:19:19;;;;;;;7.63;1.37;;;13.20;99.90;;;;;;5038084;28;20642;-52
2023/03/24 11:21:49;;;;;;;5.23;1.23;;;13.20;99.90;;;;;;5055600;28;20238;-52
2023/03/24 11:24:18;;;;;;;7.53;1.50;;;13.30;99.90;;;;;;5058252;28;20249;-50
2023/03/24 11:27:04;;;;;;;5.63;1.10;;;13.20;99.90;;;;;;5055276;28;20367;-56
2023/03/24 11:29:38;;;;;;;4.93;1.30;;;13.10;99.90;;;;;;5053788;28;20210;-53
2023/03/24 11:32:12;;;;;;;4.50;1.20;;;12.90;99.90;;;;;;5050068;28;21237;-51
2023/03/24 11:34:44;;;;;;;7.40;1.33;;;12.90;99.90;;;;;;5052151;28;20220;-56
2023/03/24 11:37:17;;;;;;;5.00;1.83;;;13.00;99.90;;;;;;5057884;28;20601;-56
2023/03/24 11:39:44;;;;;;;5.40;1.33;;;13.10;99.90;;;;;;5061940;28;20196;-48
2023/03/24 11:42:16;;;;;;;4.90;1.20;;;13.20;99.90;;;;;;5063500;28;20245;-53
2023/03/24 11:44:49;;;;;;;6.37;1.57;;;13.40;99.90;;;;;;5052412;28;20910;-51
2023/03/24 11:47:22;;;;;;;4.57;1.40;;;13.40;99.90;;;;;;5058269;28;20347;-55
2023/03/24 11:50:18;;;;;;;5.07;1.57;;;13.50;99.90;;;;;;5061229;28;20214;-56
2023/03/24 11:52:52;;;;;;;5.73;1.30;;;13.60;99.90;;;;;;5051320;28;20199;-49
2023/03/24 11:55:27;;;;;;;2.90;1.27;;;13.70;99.90;;;;;;5065103;28;20224;-56
2023/03/24 11:57:58;;;;;;;15.10;1.67;;;13.80;99.90;;;;;;5063781;28;21006;-48
2023/03/24 12:00:32;;;;;;;4.70;1.20;;;13.90;99.90;;;;;;5056884;28;20206;-56
2023/03/24 12:03:32;;;;;;;5.63;1.37;;;14.00;99.90;;;;;;5061095;28;20263;-48
2023/03/24 12:06:11;;;;;;;3.27;1.10;;;14.10;99.90;;;;;;5064629;28;20285;-53
2023/03/24 12:08:47;;;;;;;4.23;1.47;;;14.20;99.90;;;;;;5041850;28;20214;-50
2023/03/24 12:11:20;;;;;;;7.00;1.20;;;14.40;99.90;;;;;;5046848;28;20201;-51
2023/03/24 12:13:50;;;;;;;9.60;1.60;;;14.40;99.90;;;;;;5062717;28;20202;-56
2023/03/24 12:16:38;;;;;;;3.67;1.80;;;14.20;99.90;;;;;;5054748;28;20306;-51
2023/03/24 12:19:32;;;;;;;5.03;1.23;;;14.10;99.90;;;;;;5060126;28;20951;-48
2023/03/24 12:22:14;;;;;;;4.63;2.00;;;14.00;99.90;;;;;;5043735;28;20205;-57
2023/03/24 12:25:07;;;;;;;5.73;1.40;;;13.90;99.90;;;;;;5063659;28;20672;-48
2023/03/24 12:27:48;;;;;;;7.53;1.80;;;13.80;99.90;;;;;;5063879;28;20211;-49
2023/03/24 12:30:22;;;;;;;3.60;1.40;;;13.80;99.90;;;;;;5058224;28;20374;-49
2023/03/24 12:33:00;;;;;;;9.23;1.67;;;13.80;99.90;;;;;;5055424;28;20264;-57
2023/03/24 12:36:00;;;;;;;5.03;1.40;;;13.90;99.90;;;;;;5064447;28;20206;-49
2023/03/24 12:38:41;;;;;;;10.23;1.60;;;14.00;99.90;;;;;;5045876;28;20226;-51
2023/03/24 12:41:22;;;;;;;2.97;0.90;;;14.00;99.90;;;;;;5059177;28;20260;-49
2023/03/24 12:44:01;;;;;;;8.10;1.53;;;14.00;99.90;;;;;;5056898;28;20215;-56
2023/03/24 12:46:37;;;;;;;10.27;1.80;;;14.10;99.90;;;;;;5058791;28;20226;-52
2023/03/24 12:49:21;;;;;;;8.17;1.93;;;14.00;99.90;;;;;;5054892;28;20222;-53
2023/03/24 12:52:02;;;;;;;6.00;1.37;;;13.90;99.90;;;;;;5061317;28;20311;-56
2023/03/24 12:54:34;;;;;;;8.20;1.87;;;13.80;99.90;;;;;;5034972;28;20198;-52
2023/03/24 12:57:07;;;;;;;6.23;1.43;;;13.80;99.90;;;;;;5064241;28;20328;-54
2023/03/24 12:59:39;;;;;;;6.63;1.53;;;13.70;99.90;;;;;;5055024;28;20936;-54
2023/03/24 13:02:26;;;;;;;7.23;1.50;;;13.60;99.90;;;;;;5059503;28;20211;-55
2023/03/24 13:05:03;;;;;;;7.97;1.70;;;13.80;99.90;;;;;;5063670;28;20228;-48
2023/03/24 13:07:32;;;;;;;10.63;1.77;;;13.80;99.90;;;;;;5052375;28;20284;-49
2023/03/24 13:10:06;;;;;;;6.00;1.40;;;13.80;99.90;;;;;;5046915;28;20202;-52
2023/03/24 13:12:38;;;;;;;5.67;1.97;;;13.80;99.90;;;;;;5060024;28;20821;-52
2023/03/24 13:15:15;;;;;;;5.00;1.67;;;13.70;99.90;;;;;;5062408;28;20278;-51
2023/03/24 13:17:48;;;;;;;8.70;1.80;;;13.70;99.90;;;;;;5057789;28;20241;-51
2023/03/24 13:20:23;;;;;;;5.53;1.90;;;13.80;99.90;;;;;;5062670;28;20281;-55